sensor_id;sensor_type;location;lat;lon;timestamp;P1;durP1;ratioP1;P2;durP2;ratioP2
8978;SDS011;4524;51.364;5.448;2024-03-07T00:00:37;32.80;;;18.63;;
8978;SDS011;4524;51.364;5.448;2024-03-07T00:03:19;33.92;;;19.00;;
8978;SDS011;4524;51.364;5.448;2024-03-07T00:05:48;34.03;;;19.42;;
8978;SDS011;4524;51.364;5.448;2024-03-07T00:08:20;37.83;;;20.48;;
8978;SDS011;4524;51.364;5.448;2024-03-07T00:10:50;38.65;;;23.17;;
8978;SDS011;4524;51.364;5.448;2024-03-07T00:13:28;35.88;;;22.52;;
8978;SDS011;4524;51.364;5.448;2024-03-07T00:16:00;38.00;;;21.70;;
8978;SDS011;4524;51.364;5.448;2024-03-07T00:18:32;41.35;;;22.88;;
8978;SDS011;4524;51.364;5.448;2024-03-07T00:21:01;39.78;;;23.38;;
8978;SDS011;4524;51.364;5.448;2024-03-07T00:23:32;45.80;;;25.00;;
8978;SDS011;4524;51.364;5.448;2024-03-07T00:26:02;47.78;;;30.75;;
8978;SDS011;4524;51.364;5.448;2024-03-07T00:28:32;45.22;;;26.50;;
8978;SDS011;4524;51.364;5.448;2024-03-07T00:31:08;44.80;;;25.75;;
8978;SDS011;4524;51.364;5.448;2024-03-07T00:33:38;34.33;;;24.02;;
8978;SDS011;4524;51.364;5.448;2024-03-07T00:36:27;47.35;;;24.80;;
8978;SDS011;4524;51.364;5.448;2024-03-07T00:38:57;38.15;;;24.45;;
8978;SDS011;4524;51.364;5.448;2024-03-07T00:41:26;40.63;;;23.20;;
8978;SDS011;4524;51.364;5.448;2024-03-07T00:43:59;41.72;;;20.88;;
8978;SDS011;4524;51.364;5.448;2024-03-07T00:46:28;43.75;;;25.42;;
8978;SDS011;4524;51.364;5.448;2024-03-07T00:48:59;33.88;;;20.65;;
8978;SDS011;4524;51.364;5.448;2024-03-07T00:51:29;43.55;;;23.75;;
8978;SDS011;4524;51.364;5.448;2024-03-07T00:53:57;25.85;;;17.33;;
8978;SDS011;4524;51.364;5.448;2024-03-07T00:56:28;39.30;;;22.45;;
8978;SDS011;4524;51.364;5.448;2024-03-07T00:59:08;42.17;;;24.35;;
8978;SDS011;4524;51.364;5.448;2024-03-07T01:01:42;40.28;;;23.70;;
8978;SDS011;4524;51.364;5.448;2024-03-07T01:04:18;47.55;;;28.55;;
8978;SDS011;4524;51.364;5.448;2024-03-07T01:06:51;43.47;;;25.13;;
8978;SDS011;4524;51.364;5.448;2024-03-07T01:09:24;48.08;;;27.77;;
8978;SDS011;4524;51.364;5.448;2024-03-07T01:11:54;44.92;;;25.90;;
8978;SDS011;4524;51.364;5.448;2024-03-07T01:14:27;49.05;;;28.77;;
8978;SDS011;4524;51.364;5.448;2024-03-07T01:16:59;46.47;;;25.42;;
8978;SDS011;4524;51.364;5.448;2024-03-07T01:19:30;48.92;;;26.48;;
8978;SDS011;4524;51.364;5.448;2024-03-07T01:22:03;51.50;;;29.20;;
8978;SDS011;4524;51.364;5.448;2024-03-07T01:24:32;46.53;;;26.98;;
8978;SDS011;4524;51.364;5.448;2024-03-07T01:27:02;52.92;;;29.30;;
8978;SDS011;4524;51.364;5.448;2024-03-07T01:29:34;43.17;;;25.20;;
8978;SDS011;4524;51.364;5.448;2024-03-07T01:32:09;53.38;;;31.08;;
8978;SDS011;4524;51.364;5.448;2024-03-07T01:34:38;49.30;;;29.05;;
8978;SDS011;4524;51.364;5.448;2024-03-07T01:37:06;56.65;;;30.25;;
8978;SDS011;4524;51.364;5.448;2024-03-07T01:39:45;52.30;;;32.60;;
8978;SDS011;4524;51.364;5.448;2024-03-07T01:42:16;49.58;;;33.67;;
8978;SDS011;4524;51.364;5.448;2024-03-07T01:44:48;54.80;;;33.88;;
8978;SDS011;4524;51.364;5.448;2024-03-07T01:47:17;51.58;;;31.33;;
8978;SDS011;4524;51.364;5.448;2024-03-07T01:49:46;45.05;;;27.30;;
8978;SDS011;4524;51.364;5.448;2024-03-07T01:52:17;47.25;;;28.63;;
8978;SDS011;4524;51.364;5.448;2024-03-07T01:54:46;45.65;;;29.23;;
8978;SDS011;4524;51.364;5.448;2024-03-07T01:57:15;44.35;;;29.10;;
8978;SDS011;4524;51.364;5.448;2024-03-07T01:59:48;50.50;;;32.47;;
8978;SDS011;4524;51.364;5.448;2024-03-07T02:02:20;46.83;;;31.27;;
8978;SDS011;4524;51.364;5.448;2024-03-07T02:04:49;43.45;;;34.13;;
8978;SDS011;4524;51.364;5.448;2024-03-07T02:07:18;57.40;;;36.20;;
8978;SDS011;4524;51.364;5.448;2024-03-07T02:09:47;53.50;;;35.67;;
8978;SDS011;4524;51.364;5.448;2024-03-07T02:12:15;49.10;;;35.53;;
8978;SDS011;4524;51.364;5.448;2024-03-07T02:14:45;56.03;;;37.00;;
8978;SDS011;4524;51.364;5.448;2024-03-07T02:17:16;57.38;;;40.45;;
8978;SDS011;4524;51.364;5.448;2024-03-07T02:19:45;54.95;;;40.38;;
8978;SDS011;4524;51.364;5.448;2024-03-07T02:22:25;49.65;;;37.63;;
8978;SDS011;4524;51.364;5.448;2024-03-07T02:24:53;58.38;;;38.83;;
8978;SDS011;4524;51.364;5.448;2024-03-07T02:27:22;62.35;;;38.03;;
8978;SDS011;4524;51.364;5.448;2024-03-07T02:29:52;58.40;;;37.65;;
8978;SDS011;4524;51.364;5.448;2024-03-07T02:32:22;58.25;;;38.85;;
8978;SDS011;4524;51.364;5.448;2024-03-07T02:34:57;53.70;;;36.72;;
8978;SDS011;4524;51.364;5.448;2024-03-07T02:37:35;59.17;;;41.42;;
8978;SDS011;4524;51.364;5.448;2024-03-07T02:40:04;51.20;;;41.22;;
8978;SDS011;4524;51.364;5.448;2024-03-07T02:42:37;62.25;;;42.72;;
8978;SDS011;4524;51.364;5.448;2024-03-07T02:45:08;54.47;;;39.75;;
8978;SDS011;4524;51.364;5.448;2024-03-07T02:47:42;50.70;;;39.42;;
8978;SDS011;4524;51.364;5.448;2024-03-07T02:50:11;44.67;;;32.60;;
8978;SDS011;4524;51.364;5.448;2024-03-07T02:52:41;55.85;;;40.67;;
8978;SDS011;4524;51.364;5.448;2024-03-07T02:55:11;68.43;;;44.05;;
8978;SDS011;4524;51.364;5.448;2024-03-07T02:57:39;67.85;;;47.45;;
8978;SDS011;4524;51.364;5.448;2024-03-07T03:00:08;64.45;;;42.22;;
8978;SDS011;4524;51.364;5.448;2024-03-07T03:02:46;59.35;;;45.50;;
8978;SDS011;4524;51.364;5.448;2024-03-07T03:05:17;55.92;;;41.70;;
8978;SDS011;4524;51.364;5.448;2024-03-07T03:07:53;67.50;;;41.58;;
8978;SDS011;4524;51.364;5.448;2024-03-07T03:10:26;51.05;;;43.03;;
8978;SDS011;4524;51.364;5.448;2024-03-07T03:13:08;61.47;;;47.20;;
8978;SDS011;4524;51.364;5.448;2024-03-07T03:15:37;63.03;;;47.83;;
8978;SDS011;4524;51.364;5.448;2024-03-07T03:18:09;64.07;;;46.88;;
8978;SDS011;4524;51.364;5.448;2024-03-07T03:20:44;51.70;;;41.63;;
8978;SDS011;4524;51.364;5.448;2024-03-07T03:23:16;73.95;;;49.55;;
8978;SDS011;4524;51.364;5.448;2024-03-07T03:25:53;52.53;;;43.47;;
8978;SDS011;4524;51.364;5.448;2024-03-07T03:28:30;67.47;;;52.28;;
8978;SDS011;4524;51.364;5.448;2024-03-07T03:31:02;58.22;;;45.50;;
8978;SDS011;4524;51.364;5.448;2024-03-07T03:33:32;65.18;;;48.50;;
8978;SDS011;4524;51.364;5.448;2024-03-07T03:36:03;59.42;;;48.20;;
8978;SDS011;4524;51.364;5.448;2024-03-07T03:38:36;61.53;;;47.00;;
8978;SDS011;4524;51.364;5.448;2024-03-07T03:41:05;52.45;;;43.47;;
8978;SDS011;4524;51.364;5.448;2024-03-07T03:43:37;59.88;;;48.60;;
8978;SDS011;4524;51.364;5.448;2024-03-07T03:46:09;65.57;;;48.58;;
8978;SDS011;4524;51.364;5.448;2024-03-07T03:48:38;57.40;;;47.47;;
8978;SDS011;4524;51.364;5.448;2024-03-07T03:51:09;54.58;;;46.40;;
8978;SDS011;4524;51.364;5.448;2024-03-07T03:53:41;63.03;;;48.95;;
8978;SDS011;4524;51.364;5.448;2024-03-07T03:56:10;61.20;;;47.83;;
8978;SDS011;4524;51.364;5.448;2024-03-07T03:58:39;64.40;;;49.67;;
8978;SDS011;4524;51.364;5.448;2024-03-07T04:01:09;67.65;;;48.83;;
8978;SDS011;4524;51.364;5.448;2024-03-07T04:03:41;77.47;;;54.15;;
8978;SDS011;4524;51.364;5.448;2024-03-07T04:06:13;56.22;;;47.17;;
8978;SDS011;4524;51.364;5.448;2024-03-07T04:08:44;59.42;;;48.55;;
8978;SDS011;4524;51.364;5.448;2024-03-07T04:11:14;65.93;;;48.92;;
8978;SDS011;4524;51.364;5.448;2024-03-07T04:13:44;71.05;;;51.67;;
8978;SDS011;4524;51.364;5.448;2024-03-07T04:16:14;66.03;;;51.70;;
8978;SDS011;4524;51.364;5.448;2024-03-07T04:18:55;64.05;;;52.53;;
8978;SDS011;4524;51.364;5.448;2024-03-07T04:21:25;65.70;;;52.78;;
8978;SDS011;4524;51.364;5.448;2024-03-07T04:23:56;72.15;;;52.65;;
8978;SDS011;4524;51.364;5.448;2024-03-07T04:26:25;68.97;;;50.58;;
8978;SDS011;4524;51.364;5.448;2024-03-07T04:28:54;60.95;;;49.58;;
8978;SDS011;4524;51.364;5.448;2024-03-07T04:31:23;69.30;;;50.40;;
8978;SDS011;4524;51.364;5.448;2024-03-07T04:33:53;59.55;;;48.17;;
8978;SDS011;4524;51.364;5.448;2024-03-07T04:36:26;55.72;;;49.17;;
8978;SDS011;4524;51.364;5.448;2024-03-07T04:38:54;62.55;;;50.85;;
8978;SDS011;4524;51.364;5.448;2024-03-07T04:41:29;60.10;;;49.20;;
8978;SDS011;4524;51.364;5.448;2024-03-07T04:46:29;69.50;;;56.80;;
8978;SDS011;4524;51.364;5.448;2024-03-07T04:49:13;62.90;;;54.58;;
8978;SDS011;4524;51.364;5.448;2024-03-07T04:51:45;78.05;;;55.25;;
8978;SDS011;4524;51.364;5.448;2024-03-07T04:54:18;78.55;;;54.13;;
8978;SDS011;4524;51.364;5.448;2024-03-07T04:56:52;52.58;;;46.97;;
8978;SDS011;4524;51.364;5.448;2024-03-07T04:59:23;65.85;;;54.50;;
8978;SDS011;4524;51.364;5.448;2024-03-07T05:01:52;67.25;;;53.78;;
8978;SDS011;4524;51.364;5.448;2024-03-07T05:04:21;72.80;;;54.58;;
8978;SDS011;4524;51.364;5.448;2024-03-07T05:06:55;64.45;;;53.67;;
8978;SDS011;4524;51.364;5.448;2024-03-07T05:09:30;69.22;;;53.28;;
8978;SDS011;4524;51.364;5.448;2024-03-07T05:12:00;66.82;;;54.10;;
8978;SDS011;4524;51.364;5.448;2024-03-07T05:14:29;64.22;;;53.67;;
8978;SDS011;4524;51.364;5.448;2024-03-07T05:16:58;64.43;;;52.38;;
8978;SDS011;4524;51.364;5.448;2024-03-07T05:19:40;69.03;;;57.38;;
8978;SDS011;4524;51.364;5.448;2024-03-07T05:22:08;66.07;;;55.00;;
8978;SDS011;4524;51.364;5.448;2024-03-07T05:24:42;72.72;;;55.72;;
8978;SDS011;4524;51.364;5.448;2024-03-07T05:27:11;78.20;;;55.42;;
8978;SDS011;4524;51.364;5.448;2024-03-07T05:29:42;66.78;;;54.38;;
8978;SDS011;4524;51.364;5.448;2024-03-07T05:32:21;70.88;;;54.60;;
8978;SDS011;4524;51.364;5.448;2024-03-07T05:34:53;75.32;;;54.63;;
8978;SDS011;4524;51.364;5.448;2024-03-07T05:37:22;64.63;;;52.50;;
8978;SDS011;4524;51.364;5.448;2024-03-07T05:39:55;67.05;;;55.78;;
8978;SDS011;4524;51.364;5.448;2024-03-07T05:42:23;71.03;;;57.42;;
8978;SDS011;4524;51.364;5.448;2024-03-07T05:44:53;69.13;;;57.28;;
8978;SDS011;4524;51.364;5.448;2024-03-07T05:47:22;72.00;;;58.35;;
8978;SDS011;4524;51.364;5.448;2024-03-07T05:49:51;70.65;;;57.88;;
8978;SDS011;4524;51.364;5.448;2024-03-07T05:52:21;71.55;;;57.65;;
8978;SDS011;4524;51.364;5.448;2024-03-07T05:54:50;65.47;;;56.63;;
8978;SDS011;4524;51.364;5.448;2024-03-07T05:57:26;77.93;;;59.17;;
8978;SDS011;4524;51.364;5.448;2024-03-07T05:59:56;72.85;;;60.95;;
8978;SDS011;4524;51.364;5.448;2024-03-07T06:02:26;81.60;;;62.38;;
8978;SDS011;4524;51.364;5.448;2024-03-07T06:04:56;75.22;;;61.55;;
8978;SDS011;4524;51.364;5.448;2024-03-07T06:07:28;83.13;;;63.00;;
8978;SDS011;4524;51.364;5.448;2024-03-07T06:10:09;92.43;;;67.20;;
8978;SDS011;4524;51.364;5.448;2024-03-07T06:12:41;75.25;;;62.20;;
8978;SDS011;4524;51.364;5.448;2024-03-07T06:15:35;78.07;;;63.63;;
8978;SDS011;4524;51.364;5.448;2024-03-07T06:18:05;74.80;;;60.60;;
8978;SDS011;4524;51.364;5.448;2024-03-07T06:20:35;73.72;;;61.72;;
8978;SDS011;4524;51.364;5.448;2024-03-07T06:26:33;98.88;;;69.80;;
8978;SDS011;4524;51.364;5.448;2024-03-07T06:33:32;69.40;;;62.00;;
8978;SDS011;4524;51.364;5.448;2024-03-07T06:39:38;81.88;;;66.80;;
8978;SDS011;4524;51.364;5.448;2024-03-07T06:42:45;99.00;;;70.32;;
8978;SDS011;4524;51.364;5.448;2024-03-07T06:51:43;81.70;;;66.15;;
8978;SDS011;4524;51.364;5.448;2024-03-07T06:54:30;69.95;;;60.80;;
8978;SDS011;4524;51.364;5.448;2024-03-07T06:57:01;76.40;;;60.85;;
8978;SDS011;4524;51.364;5.448;2024-03-07T06:59:36;73.63;;;60.60;;
8978;SDS011;4524;51.364;5.448;2024-03-07T07:02:28;91.15;;;67.57;;
8978;SDS011;4524;51.364;5.448;2024-03-07T07:05:13;69.10;;;60.72;;
8978;SDS011;4524;51.364;5.448;2024-03-07T07:07:59;71.43;;;62.00;;
8978;SDS011;4524;51.364;5.448;2024-03-07T07:10:44;76.45;;;63.53;;
8978;SDS011;4524;51.364;5.448;2024-03-07T07:13:21;75.78;;;63.97;;
8978;SDS011;4524;51.364;5.448;2024-03-07T07:15:55;85.15;;;62.92;;
8978;SDS011;4524;51.364;5.448;2024-03-07T07:18:29;76.35;;;60.83;;
8978;SDS011;4524;51.364;5.448;2024-03-07T07:21:01;80.47;;;62.00;;
8978;SDS011;4524;51.364;5.448;2024-03-07T07:23:31;68.53;;;61.13;;
8978;SDS011;4524;51.364;5.448;2024-03-07T07:26:13;79.97;;;62.08;;
8978;SDS011;4524;51.364;5.448;2024-03-07T07:28:45;69.07;;;58.85;;
8978;SDS011;4524;51.364;5.448;2024-03-07T07:31:13;63.00;;;55.88;;
8978;SDS011;4524;51.364;5.448;2024-03-07T07:33:43;77.20;;;60.55;;
8978;SDS011;4524;51.364;5.448;2024-03-07T07:36:23;69.25;;;59.00;;
8978;SDS011;4524;51.364;5.448;2024-03-07T07:38:57;60.42;;;53.85;;
8978;SDS011;4524;51.364;5.448;2024-03-07T07:41:33;59.60;;;53.30;;
8978;SDS011;4524;51.364;5.448;2024-03-07T07:44:04;64.22;;;53.45;;
8978;SDS011;4524;51.364;5.448;2024-03-07T07:46:37;61.13;;;54.58;;
8978;SDS011;4524;51.364;5.448;2024-03-07T07:49:08;69.35;;;56.22;;
8978;SDS011;4524;51.364;5.448;2024-03-07T07:51:39;55.58;;;48.65;;
8978;SDS011;4524;51.364;5.448;2024-03-07T07:54:08;59.47;;;52.25;;
8978;SDS011;4524;51.364;5.448;2024-03-07T07:59:07;69.45;;;58.22;;
8978;SDS011;4524;51.364;5.448;2024-03-07T08:01:37;54.95;;;49.25;;
8978;SDS011;4524;51.364;5.448;2024-03-07T08:04:10;52.38;;;47.03;;
8978;SDS011;4524;51.364;5.448;2024-03-07T08:06:42;50.58;;;46.00;;
8978;SDS011;4524;51.364;5.448;2024-03-07T08:09:14;52.00;;;46.50;;
8978;SDS011;4524;51.364;5.448;2024-03-07T08:11:43;56.88;;;48.78;;
8978;SDS011;4524;51.364;5.448;2024-03-07T08:16:47;58.85;;;52.65;;
8978;SDS011;4524;51.364;5.448;2024-03-07T08:19:19;57.08;;;50.95;;
8978;SDS011;4524;51.364;5.448;2024-03-07T08:21:53;53.15;;;46.80;;
8978;SDS011;4524;51.364;5.448;2024-03-07T08:24:23;44.17;;;39.78;;
8978;SDS011;4524;51.364;5.448;2024-03-07T08:26:51;46.15;;;41.85;;
8978;SDS011;4524;51.364;5.448;2024-03-07T08:29:20;51.20;;;45.53;;
8978;SDS011;4524;51.364;5.448;2024-03-07T08:31:49;54.03;;;45.72;;
8978;SDS011;4524;51.364;5.448;2024-03-07T08:34:18;51.05;;;42.47;;
8978;SDS011;4524;51.364;5.448;2024-03-07T08:36:48;49.58;;;44.22;;
8978;SDS011;4524;51.364;5.448;2024-03-07T08:39:21;43.63;;;39.25;;
8978;SDS011;4524;51.364;5.448;2024-03-07T08:41:52;48.70;;;41.60;;
8978;SDS011;4524;51.364;5.448;2024-03-07T08:44:23;44.47;;;39.85;;
8978;SDS011;4524;51.364;5.448;2024-03-07T08:46:52;50.13;;;40.65;;
8978;SDS011;4524;51.364;5.448;2024-03-07T08:49:21;50.55;;;38.90;;
8978;SDS011;4524;51.364;5.448;2024-03-07T08:51:49;42.20;;;36.30;;
8978;SDS011;4524;51.364;5.448;2024-03-07T08:54:18;37.45;;;33.60;;
8978;SDS011;4524;51.364;5.448;2024-03-07T08:56:49;44.78;;;38.28;;
8978;SDS011;4524;51.364;5.448;2024-03-07T08:59:18;45.30;;;38.45;;
8978;SDS011;4524;51.364;5.448;2024-03-07T09:01:49;47.85;;;36.10;;
8978;SDS011;4524;51.364;5.448;2024-03-07T09:04:19;35.47;;;31.20;;
8978;SDS011;4524;51.364;5.448;2024-03-07T09:06:50;37.72;;;32.78;;
8978;SDS011;4524;51.364;5.448;2024-03-07T09:09:23;37.60;;;31.60;;
8978;SDS011;4524;51.364;5.448;2024-03-07T09:11:52;36.42;;;29.50;;
8978;SDS011;4524;51.364;5.448;2024-03-07T09:14:22;43.25;;;35.00;;
8978;SDS011;4524;51.364;5.448;2024-03-07T09:16:50;42.17;;;36.80;;
8978;SDS011;4524;51.364;5.448;2024-03-07T09:19:21;40.15;;;33.67;;
8978;SDS011;4524;51.364;5.448;2024-03-07T09:21:54;34.72;;;31.42;;
8978;SDS011;4524;51.364;5.448;2024-03-07T09:24:26;40.90;;;31.48;;
8978;SDS011;4524;51.364;5.448;2024-03-07T09:27:12;34.95;;;31.25;;
8978;SDS011;4524;51.364;5.448;2024-03-07T09:29:50;37.58;;;32.25;;
8978;SDS011;4524;51.364;5.448;2024-03-07T09:32:20;30.48;;;27.20;;
8978;SDS011;4524;51.364;5.448;2024-03-07T09:34:52;36.38;;;29.23;;
8978;SDS011;4524;51.364;5.448;2024-03-07T09:37:25;37.40;;;31.23;;
8978;SDS011;4524;51.364;5.448;2024-03-07T09:39:56;32.70;;;26.00;;
8978;SDS011;4524;51.364;5.448;2024-03-07T09:42:33;33.95;;;26.40;;
8978;SDS011;4524;51.364;5.448;2024-03-07T09:45:08;31.85;;;24.85;;
8978;SDS011;4524;51.364;5.448;2024-03-07T09:47:45;31.50;;;25.48;;
8978;SDS011;4524;51.364;5.448;2024-03-07T09:50:20;36.30;;;26.33;;
8978;SDS011;4524;51.364;5.448;2024-03-07T09:52:53;34.17;;;27.63;;
8978;SDS011;4524;51.364;5.448;2024-03-07T09:55:32;29.40;;;26.35;;
8978;SDS011;4524;51.364;5.448;2024-03-07T09:58:05;37.22;;;28.17;;
8978;SDS011;4524;51.364;5.448;2024-03-07T10:00:50;34.67;;;26.10;;
8978;SDS011;4524;51.364;5.448;2024-03-07T10:03:32;33.38;;;28.02;;
8978;SDS011;4524;51.364;5.448;2024-03-07T10:06:08;35.42;;;27.85;;
8978;SDS011;4524;51.364;5.448;2024-03-07T10:08:56;36.80;;;26.25;;
8978;SDS011;4524;51.364;5.448;2024-03-07T10:11:35;33.33;;;24.10;;
8978;SDS011;4524;51.364;5.448;2024-03-07T10:14:24;27.00;;;23.77;;
8978;SDS011;4524;51.364;5.448;2024-03-07T10:17:00;28.83;;;24.98;;
8978;SDS011;4524;51.364;5.448;2024-03-07T10:19:34;33.50;;;27.08;;
8978;SDS011;4524;51.364;5.448;2024-03-07T10:22:15;35.42;;;29.77;;
8978;SDS011;4524;51.364;5.448;2024-03-07T10:24:49;39.05;;;28.10;;
8978;SDS011;4524;51.364;5.448;2024-03-07T10:27:25;30.42;;;25.58;;
8978;SDS011;4524;51.364;5.448;2024-03-07T10:30:00;36.38;;;28.88;;
8978;SDS011;4524;51.364;5.448;2024-03-07T10:32:31;20.50;;;17.58;;
8978;SDS011;4524;51.364;5.448;2024-03-07T10:35:47;33.45;;;25.67;;
8978;SDS011;4524;51.364;5.448;2024-03-07T10:38:18;31.73;;;22.30;;
8978;SDS011;4524;51.364;5.448;2024-03-07T10:40:52;34.75;;;23.52;;
8978;SDS011;4524;51.364;5.448;2024-03-07T10:43:24;27.83;;;20.05;;
8978;SDS011;4524;51.364;5.448;2024-03-07T10:46:10;31.38;;;22.63;;
8978;SDS011;4524;51.364;5.448;2024-03-07T10:48:39;22.42;;;16.90;;
8978;SDS011;4524;51.364;5.448;2024-03-07T10:51:14;27.05;;;20.55;;
8978;SDS011;4524;51.364;5.448;2024-03-07T10:53:52;33.30;;;22.67;;
8978;SDS011;4524;51.364;5.448;2024-03-07T10:56:35;31.25;;;22.70;;
8978;SDS011;4524;51.364;5.448;2024-03-07T10:59:24;32.25;;;22.95;;
8978;SDS011;4524;51.364;5.448;2024-03-07T11:01:59;37.17;;;26.90;;
8978;SDS011;4524;51.364;5.448;2024-03-07T11:04:46;33.80;;;23.13;;
8978;SDS011;4524;51.364;5.448;2024-03-07T11:07:16;28.10;;;20.35;;
8978;SDS011;4524;51.364;5.448;2024-03-07T11:09:45;28.23;;;19.75;;
8978;SDS011;4524;51.364;5.448;2024-03-07T11:12:19;27.15;;;19.20;;
8978;SDS011;4524;51.364;5.448;2024-03-07T11:14:55;29.17;;;18.70;;
8978;SDS011;4524;51.364;5.448;2024-03-07T11:17:25;32.90;;;22.25;;
8978;SDS011;4524;51.364;5.448;2024-03-07T11:19:55;30.85;;;19.50;;
8978;SDS011;4524;51.364;5.448;2024-03-07T11:22:49;27.85;;;21.58;;
8978;SDS011;4524;51.364;5.448;2024-03-07T11:25:18;34.35;;;23.10;;
8978;SDS011;4524;51.364;5.448;2024-03-07T11:27:52;30.95;;;20.45;;
8978;SDS011;4524;51.364;5.448;2024-03-07T11:30:39;33.67;;;22.33;;
8978;SDS011;4524;51.364;5.448;2024-03-07T11:33:17;36.78;;;20.08;;
8978;SDS011;4524;51.364;5.448;2024-03-07T11:35:55;27.85;;;19.38;;
8978;SDS011;4524;51.364;5.448;2024-03-07T11:38:30;24.27;;;17.73;;
8978;SDS011;4524;51.364;5.448;2024-03-07T11:41:02;20.17;;;12.80;;
8978;SDS011;4524;51.364;5.448;2024-03-07T11:51:26;29.45;;;18.15;;
8978;SDS011;4524;51.364;5.448;2024-03-07T11:57:15;24.42;;;18.27;;
8978;SDS011;4524;51.364;5.448;2024-03-07T12:00:51;18.30;;;16.45;;
8978;SDS011;4524;51.364;5.448;2024-03-07T12:07:22;20.48;;;17.95;;
8978;SDS011;4524;51.364;5.448;2024-03-07T12:09:57;25.45;;;20.05;;
8978;SDS011;4524;51.364;5.448;2024-03-07T12:22:11;23.10;;;20.77;;
8978;SDS011;4524;51.364;5.448;2024-03-07T12:25:24;22.55;;;19.58;;
8978;SDS011;4524;51.364;5.448;2024-03-07T12:34:34;29.40;;;26.60;;
8978;SDS011;4524;51.364;5.448;2024-03-07T12:40:15;24.83;;;19.05;;
8978;SDS011;4524;51.364;5.448;2024-03-07T12:45:53;23.73;;;18.27;;
8978;SDS011;4524;51.364;5.448;2024-03-07T12:48:37;19.00;;;17.20;;
8978;SDS011;4524;51.364;5.448;2024-03-07T12:53:59;32.45;;;29.05;;
8978;SDS011;4524;51.364;5.448;2024-03-07T12:57:22;29.77;;;26.60;;
8978;SDS011;4524;51.364;5.448;2024-03-07T13:00:25;28.17;;;21.83;;
8978;SDS011;4524;51.364;5.448;2024-03-07T13:02:56;25.88;;;18.35;;
8978;SDS011;4524;51.364;5.448;2024-03-07T13:05:35;26.98;;;20.38;;
8978;SDS011;4524;51.364;5.448;2024-03-07T13:08:14;22.13;;;15.73;;
8978;SDS011;4524;51.364;5.448;2024-03-07T13:10:46;27.67;;;18.30;;
8978;SDS011;4524;51.364;5.448;2024-03-07T13:13:30;20.98;;;16.08;;
8978;SDS011;4524;51.364;5.448;2024-03-07T13:16:05;20.00;;;14.38;;
8978;SDS011;4524;51.364;5.448;2024-03-07T13:18:39;21.05;;;18.02;;
8978;SDS011;4524;51.364;5.448;2024-03-07T13:21:15;25.50;;;20.50;;
8978;SDS011;4524;51.364;5.448;2024-03-07T13:24:01;24.15;;;17.65;;
8978;SDS011;4524;51.364;5.448;2024-03-07T13:26:47;25.65;;;21.92;;
8978;SDS011;4524;51.364;5.448;2024-03-07T13:29:19;24.88;;;22.42;;
8978;SDS011;4524;51.364;5.448;2024-03-07T13:32:02;26.70;;;23.05;;
8978;SDS011;4524;51.364;5.448;2024-03-07T13:34:33;23.13;;;19.50;;
8978;SDS011;4524;51.364;5.448;2024-03-07T13:37:21;26.02;;;21.00;;
8978;SDS011;4524;51.364;5.448;2024-03-07T13:40:13;29.70;;;20.27;;
8978;SDS011;4524;51.364;5.448;2024-03-07T13:42:54;23.15;;;18.50;;
8978;SDS011;4524;51.364;5.448;2024-03-07T13:45:51;22.02;;;16.63;;
8978;SDS011;4524;51.364;5.448;2024-03-07T13:48:37;26.77;;;16.63;;
8978;SDS011;4524;51.364;5.448;2024-03-07T13:51:22;14.93;;;13.20;;
8978;SDS011;4524;51.364;5.448;2024-03-07T13:53:59;26.33;;;17.70;;
8978;SDS011;4524;51.364;5.448;2024-03-07T13:56:50;21.13;;;16.10;;
8978;SDS011;4524;51.364;5.448;2024-03-07T13:59:47;23.10;;;16.45;;
8978;SDS011;4524;51.364;5.448;2024-03-07T14:03:04;24.25;;;19.33;;
8978;SDS011;4524;51.364;5.448;2024-03-07T14:06:29;23.80;;;20.75;;
8978;SDS011;4524;51.364;5.448;2024-03-07T14:23:00;25.00;;;21.58;;
8978;SDS011;4524;51.364;5.448;2024-03-07T14:25:47;25.25;;;22.65;;
8978;SDS011;4524;51.364;5.448;2024-03-07T14:31:40;36.90;;;33.75;;
8978;SDS011;4524;51.364;5.448;2024-03-07T14:34:33;27.90;;;25.30;;
8978;SDS011;4524;51.364;5.448;2024-03-07T14:37:53;26.85;;;24.27;;
8978;SDS011;4524;51.364;5.448;2024-03-07T14:40:36;25.38;;;22.83;;
8978;SDS011;4524;51.364;5.448;2024-03-07T14:43:05;19.75;;;17.75;;
8978;SDS011;4524;51.364;5.448;2024-03-07T14:45:37;19.98;;;17.70;;
8978;SDS011;4524;51.364;5.448;2024-03-07T14:48:11;20.90;;;15.60;;
8978;SDS011;4524;51.364;5.448;2024-03-07T14:50:47;21.13;;;18.05;;
8978;SDS011;4524;51.364;5.448;2024-03-07T14:53:18;20.63;;;17.85;;
8978;SDS011;4524;51.364;5.448;2024-03-07T14:55:49;21.52;;;16.08;;
8978;SDS011;4524;51.364;5.448;2024-03-07T14:58:19;19.55;;;14.45;;
8978;SDS011;4524;51.364;5.448;2024-03-07T15:00:48;21.38;;;15.95;;
8978;SDS011;4524;51.364;5.448;2024-03-07T15:03:26;19.75;;;16.77;;
8978;SDS011;4524;51.364;5.448;2024-03-07T15:05:57;21.80;;;16.30;;
8978;SDS011;4524;51.364;5.448;2024-03-07T15:08:35;20.42;;;15.95;;
8978;SDS011;4524;51.364;5.448;2024-03-07T15:11:09;26.05;;;19.23;;
8978;SDS011;4524;51.364;5.448;2024-03-07T15:14:01;22.02;;;18.35;;
8978;SDS011;4524;51.364;5.448;2024-03-07T15:16:33;22.38;;;17.73;;
8978;SDS011;4524;51.364;5.448;2024-03-07T15:19:06;31.55;;;22.85;;
8978;SDS011;4524;51.364;5.448;2024-03-07T15:21:37;22.48;;;19.83;;
8978;SDS011;4524;51.364;5.448;2024-03-07T15:24:09;22.95;;;19.95;;
8978;SDS011;4524;51.364;5.448;2024-03-07T15:26:41;23.00;;;20.02;;
8978;SDS011;4524;51.364;5.448;2024-03-07T15:29:13;25.85;;;21.20;;
8978;SDS011;4524;51.364;5.448;2024-03-07T15:31:52;23.15;;;19.42;;
8978;SDS011;4524;51.364;5.448;2024-03-07T15:34:25;25.70;;;20.70;;
8978;SDS011;4524;51.364;5.448;2024-03-07T15:36:56;25.38;;;22.30;;
8978;SDS011;4524;51.364;5.448;2024-03-07T15:39:33;23.45;;;19.90;;
8978;SDS011;4524;51.364;5.448;2024-03-07T15:42:07;25.08;;;19.40;;
8978;SDS011;4524;51.364;5.448;2024-03-07T15:47:14;36.47;;;32.67;;
8978;SDS011;4524;51.364;5.448;2024-03-07T15:50:21;32.03;;;28.88;;
8978;SDS011;4524;51.364;5.448;2024-03-07T15:52:57;30.60;;;24.13;;
8978;SDS011;4524;51.364;5.448;2024-03-07T15:55:31;28.67;;;22.10;;
8978;SDS011;4524;51.364;5.448;2024-03-07T15:58:07;27.60;;;20.38;;
8978;SDS011;4524;51.364;5.448;2024-03-07T16:00:36;30.58;;;24.52;;
8978;SDS011;4524;51.364;5.448;2024-03-07T16:03:07;27.20;;;23.30;;
8978;SDS011;4524;51.364;5.448;2024-03-07T16:05:41;21.38;;;18.25;;
8978;SDS011;4524;51.364;5.448;2024-03-07T16:08:18;24.25;;;20.17;;
8978;SDS011;4524;51.364;5.448;2024-03-07T16:11:02;30.73;;;27.48;;
8978;SDS011;4524;51.364;5.448;2024-03-07T16:13:32;28.10;;;22.88;;
8978;SDS011;4524;51.364;5.448;2024-03-07T16:16:05;28.35;;;24.05;;
8978;SDS011;4524;51.364;5.448;2024-03-07T16:18:34;27.70;;;22.80;;
8978;SDS011;4524;51.364;5.448;2024-03-07T16:21:04;27.08;;;23.50;;
8978;SDS011;4524;51.364;5.448;2024-03-07T16:23:37;28.73;;;25.55;;
8978;SDS011;4524;51.364;5.448;2024-03-07T16:26:10;24.45;;;22.00;;
8978;SDS011;4524;51.364;5.448;2024-03-07T16:28:45;26.25;;;23.38;;
8978;SDS011;4524;51.364;5.448;2024-03-07T16:31:14;28.10;;;24.05;;
8978;SDS011;4524;51.364;5.448;2024-03-07T16:33:43;27.95;;;23.80;;
8978;SDS011;4524;51.364;5.448;2024-03-07T16:36:11;28.55;;;25.25;;
8978;SDS011;4524;51.364;5.448;2024-03-07T16:38:41;25.67;;;23.02;;
8978;SDS011;4524;51.364;5.448;2024-03-07T16:41:12;29.20;;;25.95;;
8978;SDS011;4524;51.364;5.448;2024-03-07T16:43:40;29.48;;;26.52;;
8978;SDS011;4524;51.364;5.448;2024-03-07T16:46:08;31.65;;;28.42;;
8978;SDS011;4524;51.364;5.448;2024-03-07T16:48:37;31.70;;;28.48;;
8978;SDS011;4524;51.364;5.448;2024-03-07T16:51:06;30.23;;;27.17;;
8978;SDS011;4524;51.364;5.448;2024-03-07T16:53:37;27.08;;;24.15;;
8978;SDS011;4524;51.364;5.448;2024-03-07T16:56:06;33.45;;;24.52;;
8978;SDS011;4524;51.364;5.448;2024-03-07T16:58:42;27.30;;;24.42;;